sensor_id;sensor_type;location;lat;lon;timestamp;pressure;altitude;pressure_sealevel;temperature;humidity
69624;BME280;56843;52.020;5.670;2023-01-19T00:01:01;99782.66;;;8.39;57.12
69624;BME280;56843;52.020;5.670;2023-01-19T00:02:32;99785.31;;;8.39;56.95
69624;BME280;56843;52.020;5.670;2023-01-19T00:04:02;99783.44;;;8.40;56.99
69624;BME280;56843;52.020;5.670;2023-01-19T00:05:34;99788.44;;;8.41;57.08
69624;BME280;56843;52.020;5.670;2023-01-19T00:07:05;99787.69;;;8.41;57.05
69624;BME280;56843;52.020;5.670;2023-01-19T00:08:36;99793.44;;;8.43;57.12
69624;BME280;56843;52.020;5.670;2023-01-19T00:10:08;99796.09;;;8.43;57.08
69624;BME280;56843;52.020;5.670;2023-01-19T00:11:38;99780.13;;;8.43;57.10
69624;BME280;56843;52.020;5.670;2023-01-19T00:13:09;99782.00;;;8.42;57.04
69624;BME280;56843;52.020;5.670;2023-01-19T00:14:39;99790.44;;;8.44;57.20
69624;BME280;56843;52.020;5.670;2023-01-19T00:16:10;99784.34;;;8.44;57.14
69624;BME280;56843;52.020;5.670;2023-01-19T00:17:40;99779.78;;;8.44;57.28
69624;BME280;56843;52.020;5.670;2023-01-19T00:19:11;99787.00;;;8.44;57.23
69624;BME280;56843;52.020;5.670;2023-01-19T00:20:44;99781.34;;;8.45;57.16
69624;BME280;56843;52.020;5.670;2023-01-19T00:22:15;99789.34;;;8.45;57.26
69624;BME280;56843;52.020;5.670;2023-01-19T00:23:46;99788.56;;;8.45;57.30
69624;BME280;56843;52.020;5.670;2023-01-19T00:25:17;99780.56;;;8.45;57.37
69624;BME280;56843;52.020;5.670;2023-01-19T00:26:47;99784.03;;;8.45;57.31
69624;BME280;56843;52.020;5.670;2023-01-19T00:28:18;99787.13;;;8.47;57.43
69624;BME280;56843;52.020;5.670;2023-01-19T00:29:48;99781.81;;;8.47;57.81
69624;BME280;56843;52.020;5.670;2023-01-19T00:31:19;99783.69;;;8.47;57.45
69624;BME280;56843;52.020;5.670;2023-01-19T00:32:50;99784.47;;;8.47;57.43
69624;BME280;56843;52.020;5.670;2023-01-19T00:34:21;99779.94;;;8.48;57.50
69624;BME280;56843;52.020;5.670;2023-01-19T00:35:52;99782.25;;;8.49;57.62
69624;BME280;56843;52.020;5.670;2023-01-19T00:37:24;99783.03;;;8.50;57.49
69624;BME280;56843;52.020;5.670;2023-01-19T00:38:55;99775.03;;;8.50;57.59
69624;BME280;56843;52.020;5.670;2023-01-19T00:40:25;99774.25;;;8.49;57.41
69624;BME280;56843;52.020;5.670;2023-01-19T00:41:56;99773.91;;;8.51;57.43
69624;BME280;56843;52.020;5.670;2023-01-19T00:43:45;99774.25;;;8.49;57.60
69624;BME280;56843;52.020;5.670;2023-01-19T00:45:20;99775.03;;;8.50;57.43
69624;BME280;56843;52.020;5.670;2023-01-19T00:46:51;99771.59;;;8.49;57.20
69624;BME280;56843;52.020;5.670;2023-01-19T00:48:22;99781.13;;;8.50;57.41
69624;BME280;56843;52.020;5.670;2023-01-19T00:49:53;99782.25;;;8.49;57.48
69624;BME280;56843;52.020;5.670;2023-01-19T00:51:23;99785.69;;;8.50;57.54
69624;BME280;56843;52.020;5.670;2023-01-19T00:52:55;99775.78;;;8.50;57.40
69624;BME280;56843;52.020;5.670;2023-01-19T00:54:26;99777.69;;;8.50;57.39
69624;BME280;56843;52.020;5.670;2023-01-19T00:55:57;99777.38;;;8.51;57.45
69624;BME280;56843;52.020;5.670;2023-01-19T00:57:27;99761.75;;;8.50;57.54
69624;BME280;56843;52.020;5.670;2023-01-19T00:58:59;99775.78;;;8.50;57.49
69624;BME280;56843;52.020;5.670;2023-01-19T01:00:29;99767.81;;;8.50;57.58
69624;BME280;56843;52.020;5.670;2023-01-19T01:02:00;99771.25;;;8.51;57.58
69624;BME280;56843;52.020;5.670;2023-01-19T01:03:31;99765.94;;;8.51;57.59
69624;BME280;56843;52.020;5.670;2023-01-19T01:05:03;99762.50;;;8.50;57.53
69624;BME280;56843;52.020;5.670;2023-01-19T01:06:35;99775.47;;;8.52;57.46
69624;BME280;56843;52.020;5.670;2023-01-19T01:08:05;99766.72;;;8.51;57.61
69624;BME280;56843;52.020;5.670;2023-01-19T01:09:36;99764.84;;;8.52;57.64
69624;BME280;56843;52.020;5.670;2023-01-19T01:11:06;99774.69;;;8.51;57.57
69624;BME280;56843;52.020;5.670;2023-01-19T01:12:37;99780.03;;;8.51;57.49
69624;BME280;56843;52.020;5.670;2023-01-19T01:14:10;99768.25;;;8.52;57.51
69624;BME280;56843;52.020;5.670;2023-01-19T01:15:40;99768.25;;;8.52;57.45
69624;BME280;56843;52.020;5.670;2023-01-19T01:17:11;99779.25;;;8.51;57.61
69624;BME280;56843;52.020;5.670;2023-01-19T01:18:43;99774.69;;;8.51;57.65
69624;BME280;56843;52.020;5.670;2023-01-19T01:20:22;99775.47;;;8.52;57.59
69624;BME280;56843;52.020;5.670;2023-01-19T01:21:53;99766.72;;;8.51;57.52
69624;BME280;56843;52.020;5.670;2023-01-19T01:23:25;99764.06;;;8.51;57.58
69624;BME280;56843;52.020;5.670;2023-01-19T01:24:55;99771.25;;;8.51;57.57
69624;BME280;56843;52.020;5.670;2023-01-19T01:26:25;99760.19;;;8.49;57.55
69624;BME280;56843;52.020;5.670;2023-01-19T01:27:56;99768.16;;;8.49;57.63
69624;BME280;56843;52.020;5.670;2023-01-19T01:29:26;99762.84;;;8.49;57.62
69624;BME280;56843;52.020;5.670;2023-01-19T01:30:57;99762.84;;;8.49;57.60
69624;BME280;56843;52.020;5.670;2023-01-19T01:32:27;99770.81;;;8.49;57.50
69624;BME280;56843;52.020;5.670;2023-01-19T01:33:58;99762.84;;;8.49;57.72
69624;BME280;56843;52.020;5.670;2023-01-19T01:35:28;99768.16;;;8.49;57.66
69624;BME280;56843;52.020;5.670;2023-01-19T01:36:59;99764.41;;;8.50;57.65
69624;BME280;56843;52.020;5.670;2023-01-19T01:38:29;99760.97;;;8.49;57.42
69624;BME280;56843;52.020;5.670;2023-01-19T01:40:00;99763.63;;;8.49;57.45
69624;BME280;56843;52.020;5.670;2023-01-19T01:41:30;99759.38;;;8.48;57.58
69624;BME280;56843;52.020;5.670;2023-01-19T01:43:01;99776.91;;;8.49;57.70
69624;BME280;56843;52.020;5.670;2023-01-19T01:46:20;99780.22;;;8.46;57.60
69624;BME280;56843;52.020;5.670;2023-01-19T01:47:50;99787.13;;;8.47;57.38
69624;BME280;56843;52.020;5.670;2023-01-19T01:49:22;99775.69;;;8.47;57.29
69624;BME280;56843;52.020;5.670;2023-01-19T01:50:57;99788.22;;;8.46;57.26
69624;BME280;56843;52.020;5.670;2023-01-19T01:52:54;99791.56;;;8.43;57.35
69624;BME280;56843;52.020;5.670;2023-01-19T01:54:29;99778.56;;;8.42;57.32
69624;BME280;56843;52.020;5.670;2023-01-19T01:56:06;99783.88;;;8.42;57.32
69624;BME280;56843;52.020;5.670;2023-01-19T01:57:42;99793.75;;;8.41;57.23
69624;BME280;56843;52.020;5.670;2023-01-19T01:59:15;99791.44;;;8.40;57.29
69624;BME280;56843;52.020;5.670;2023-01-19T02:03:02;99784.78;;;8.34;57.21
69624;BME280;56843;52.020;5.670;2023-01-19T02:04:32;99782.91;;;8.34;57.21
69624;BME280;56843;52.020;5.670;2023-01-19T02:06:04;99793.53;;;8.34;57.18
69624;BME280;56843;52.020;5.670;2023-01-19T02:07:48;99792.75;;;8.34;57.13
69624;BME280;56843;52.020;5.670;2023-01-19T02:09:38;99791.88;;;8.30;57.10
69624;BME280;56843;52.020;5.670;2023-01-19T02:11:28;99786.88;;;8.28;57.04
69624;BME280;56843;52.020;5.670;2023-01-19T02:13:19;99790.22;;;8.25;56.96
69624;BME280;56843;52.020;5.670;2023-01-19T02:14:50;99791.75;;;8.26;56.97
69624;BME280;56843;52.020;5.670;2023-01-19T02:16:20;99786.78;;;8.25;56.95
69624;BME280;56843;52.020;5.670;2023-01-19T02:17:51;99787.88;;;8.24;56.84
69624;BME280;56843;52.020;5.670;2023-01-19T02:19:28;99787.88;;;8.24;56.64
69624;BME280;56843;52.020;5.670;2023-01-19T02:22:54;99786.97;;;8.20;56.66
69624;BME280;56843;52.020;5.670;2023-01-19T02:24:26;99793.41;;;8.19;56.81
69624;BME280;56843;52.020;5.670;2023-01-19T02:25:59;99795.63;;;8.17;56.65
69624;BME280;56843;52.020;5.670;2023-01-19T02:27:31;99792.19;;;8.16;56.47
69624;BME280;56843;52.020;5.670;2023-01-19T02:29:10;99802.50;;;8.18;56.43
69624;BME280;56843;52.020;5.670;2023-01-19T02:30:42;99802.38;;;8.14;56.46
69624;BME280;56843;52.020;5.670;2023-01-19T02:32:13;99803.16;;;8.14;56.50
69624;BME280;56843;52.020;5.670;2023-01-19T02:33:43;99798.94;;;8.13;56.66
69624;BME280;56843;52.020;5.670;2023-01-19T02:35:14;99804.25;;;8.13;56.54
69624;BME280;56843;52.020;5.670;2023-01-19T02:38:21;99803.81;;;8.11;56.53
69624;BME280;56843;52.020;5.670;2023-01-19T02:39:56;99794.28;;;8.10;56.57
69624;BME280;56843;52.020;5.670;2023-01-19T02:41:31;99799.16;;;8.08;56.43
69624;BME280;56843;52.020;5.670;2023-01-19T02:43:05;99789.63;;;8.07;56.81
69624;BME280;56843;52.020;5.670;2023-01-19T02:44:39;99796.81;;;8.07;56.54
69624;BME280;56843;52.020;5.670;2023-01-19T02:46:13;99794.50;;;8.05;56.60
69624;BME280;56843;52.020;5.670;2023-01-19T02:47:46;99809.69;;;8.05;56.69
69624;BME280;56843;52.020;5.670;2023-01-19T02:49:18;99807.34;;;8.03;56.80
69624;BME280;56843;52.020;5.670;2023-01-19T02:50:58;99803.56;;;8.04;56.79
69624;BME280;56843;52.020;5.670;2023-01-19T02:52:33;99806.13;;;8.01;56.92
69624;BME280;56843;52.020;5.670;2023-01-19T02:55:34;99805.34;;;8.00;56.90
69624;BME280;56843;52.020;5.670;2023-01-19T03:01:25;99820.41;;;7.96;57.07
69624;BME280;56843;52.020;5.670;2023-01-19T03:03:26;99815.09;;;7.96;57.28
69624;BME280;56843;52.020;5.670;2023-01-19T03:06:58;99808.53;;;7.94;57.44
69624;BME280;56843;52.020;5.670;2023-01-19T03:10:25;99826.38;;;7.93;57.56
69624;BME280;56843;52.020;5.670;2023-01-19T03:13:50;99813.72;;;7.90;57.81
69624;BME280;56843;52.020;5.670;2023-01-19T03:17:00;99821.38;;;7.92;58.01
69624;BME280;56843;52.020;5.670;2023-01-19T03:18:34;99832.81;;;7.92;58.07
69624;BME280;56843;52.020;5.670;2023-01-19T03:20:07;99830.59;;;7.94;58.19
69624;BME280;56843;52.020;5.670;2023-01-19T03:21:40;99840.09;;;7.95;58.38
69624;BME280;56843;52.020;5.670;2023-01-19T03:23:14;99831.34;;;7.95;58.50
69624;BME280;56843;52.020;5.670;2023-01-19T03:24:45;99836.34;;;7.96;58.51
69624;BME280;56843;52.020;5.670;2023-01-19T03:26:20;99835.22;;;7.97;58.73
69624;BME280;56843;52.020;5.670;2023-01-19T03:27:53;99844.44;;;8.00;58.63
69624;BME280;56843;52.020;5.670;2023-01-19T03:29:30;99839.13;;;8.00;58.81
69624;BME280;56843;52.020;5.670;2023-01-19T03:31:13;99841.44;;;8.01;58.53
69624;BME280;56843;52.020;5.670;2023-01-19T03:32:51;99840.69;;;8.01;58.73
69624;BME280;56843;52.020;5.670;2023-01-19T03:34:23;99847.53;;;8.02;58.94
69624;BME280;56843;52.020;5.670;2023-01-19T03:35:57;99838.47;;;8.03;59.07
69624;BME280;56843;52.020;5.670;2023-01-19T03:37:32;99843.78;;;8.03;58.95
69624;BME280;56843;52.020;5.670;2023-01-19T03:39:06;99844.25;;;8.05;59.04
69624;BME280;56843;52.020;5.670;2023-01-19T03:40:38;99844.25;;;8.05;59.04
69624;BME280;56843;52.020;5.670;2023-01-19T03:42:13;99853.13;;;8.09;59.10
69624;BME280;56843;52.020;5.670;2023-01-19T03:43:47;99855.78;;;8.09;59.18
69624;BME280;56843;52.020;5.670;2023-01-19T03:45:18;99855.78;;;8.09;59.24
69624;BME280;56843;52.020;5.670;2023-01-19T03:46:49;99875.94;;;8.10;59.25
69624;BME280;56843;52.020;5.670;2023-01-19T03:48:20;99872.16;;;8.11;59.16
69624;BME280;56843;52.020;5.670;2023-01-19T03:49:52;99864.63;;;8.13;59.09
69624;BME280;56843;52.020;5.670;2023-01-19T03:51:23;99865.75;;;8.12;59.23
69624;BME280;56843;52.020;5.670;2023-01-19T03:53:08;99869.31;;;8.16;59.02
69624;BME280;56843;52.020;5.670;2023-01-19T03:54:39;99859.66;;;8.11;59.26
69624;BME280;56843;52.020;5.670;2023-01-19T03:56:21;99863.56;;;8.14;59.02
69624;BME280;56843;52.020;5.670;2023-01-19T03:57:52;99856.66;;;8.13;59.11
69624;BME280;56843;52.020;5.670;2023-01-19T03:59:23;99863.56;;;8.14;59.28
69624;BME280;56843;52.020;5.670;2023-01-19T04:00:53;99860.09;;;8.13;59.08
69624;BME280;56843;52.020;5.670;2023-01-19T04:02:24;99850.56;;;8.12;59.07
69624;BME280;56843;52.020;5.670;2023-01-19T04:03:54;99855.22;;;8.15;59.15
69624;BME280;56843;52.020;5.670;2023-01-19T04:05:25;99852.56;;;8.15;59.12
69624;BME280;56843;52.020;5.670;2023-01-19T04:06:56;99858.22;;;8.14;59.04
69624;BME280;56843;52.020;5.670;2023-01-19T04:08:26;99859.78;;;8.15;59.07
69624;BME280;56843;52.020;5.670;2023-01-19T04:09:57;99864.34;;;8.14;59.15
69624;BME280;56843;52.020;5.670;2023-01-19T04:11:28;99871.19;;;8.15;59.11
69624;BME280;56843;52.020;5.670;2023-01-19T04:13:00;99864.34;;;8.14;59.15
69624;BME280;56843;52.020;5.670;2023-01-19T04:14:31;99863.56;;;8.14;59.09
69624;BME280;56843;52.020;5.670;2023-01-19T04:16:02;99859.78;;;8.15;59.17
69624;BME280;56843;52.020;5.670;2023-01-19T04:17:33;99869.66;;;8.14;59.14
69624;BME280;56843;52.020;5.670;2023-01-19T04:19:04;99897.00;;;8.15;59.14
69624;BME280;56843;52.020;5.670;2023-01-19T04:20:34;99889.34;;;8.13;59.07
69624;BME280;56843;52.020;5.670;2023-01-19T04:22:05;99899.66;;;8.15;59.06
69624;BME280;56843;52.020;5.670;2023-01-19T04:23:35;99892.34;;;8.12;59.09
69624;BME280;56843;52.020;5.670;2023-01-19T04:25:06;99883.25;;;8.13;59.11
69624;BME280;56843;52.020;5.670;2023-01-19T04:26:37;99884.38;;;8.12;59.09
69624;BME280;56843;52.020;5.670;2023-01-19T04:28:08;99892.03;;;8.13;59.02
69624;BME280;56843;52.020;5.670;2023-01-19T04:29:38;99877.94;;;8.13;58.93
69624;BME280;56843;52.020;5.670;2023-01-19T04:31:08;99878.28;;;8.11;58.88
69624;BME280;56843;52.020;5.670;2023-01-19T04:32:39;99878.28;;;8.11;58.42
69624;BME280;56843;52.020;5.670;2023-01-19T04:34:09;99880.16;;;8.11;58.64
69624;BME280;56843;52.020;5.670;2023-01-19T04:35:40;99879.38;;;8.10;58.53
69624;BME280;56843;52.020;5.670;2023-01-19T04:37:11;99869.84;;;8.09;58.52
69624;BME280;56843;52.020;5.670;2023-01-19T04:38:42;99872.50;;;8.09;58.56
69624;BME280;56843;52.020;5.670;2023-01-19T04:40:13;99880.78;;;8.08;58.41
69624;BME280;56843;52.020;5.670;2023-01-19T04:41:44;99880.78;;;8.08;58.43
69624;BME280;56843;52.020;5.670;2023-01-19T04:43:14;99875.03;;;8.06;58.35
69624;BME280;56843;52.020;5.670;2023-01-19T04:44:45;99873.50;;;8.05;58.41
69624;BME280;56843;52.020;5.670;2023-01-19T04:46:15;99880.69;;;8.04;58.29
69624;BME280;56843;52.020;5.670;2023-01-19T04:47:46;99871.91;;;8.04;58.29
69624;BME280;56843;52.020;5.670;2023-01-19T04:49:16;99881.31;;;8.01;58.26
69624;BME280;56843;52.020;5.670;2023-01-19T04:50:49;99886.34;;;8.03;58.24
69624;BME280;56843;52.020;5.670;2023-01-19T04:52:20;99888.09;;;7.99;58.20
69624;BME280;56843;52.020;5.670;2023-01-19T04:53:51;99894.16;;;7.99;58.26
69624;BME280;56843;52.020;5.670;2023-01-19T04:55:21;99888.09;;;7.99;58.26
69624;BME280;56843;52.020;5.670;2023-01-19T04:56:51;99889.19;;;7.98;58.31
69624;BME280;56843;52.020;5.670;2023-01-19T04:58:22;99903.28;;;7.98;58.05
69624;BME280;56843;52.020;5.670;2023-01-19T04:59:52;99894.84;;;7.96;58.18
69624;BME280;56843;52.020;5.670;2023-01-19T05:01:23;99903.56;;;7.97;58.36
69624;BME280;56843;52.020;5.670;2023-01-19T05:02:53;99903.13;;;7.95;57.99
69624;BME280;56843;52.020;5.670;2023-01-19T05:04:25;99899.38;;;7.96;58.05
69624;BME280;56843;52.020;5.670;2023-01-19T05:05:56;99905.03;;;7.94;58.05
69624;BME280;56843;52.020;5.670;2023-01-19T05:07:26;99910.00;;;7.96;58.20
69624;BME280;56843;52.020;5.670;2023-01-19T05:08:57;99901.59;;;7.94;58.06
69624;BME280;56843;52.020;5.670;2023-01-19T05:10:28;99904.59;;;7.92;58.12
69624;BME280;56843;52.020;5.670;2023-01-19T05:11:58;99909.13;;;7.92;58.05
69624;BME280;56843;52.020;5.670;2023-01-19T05:13:29;99912.88;;;7.91;58.03
69624;BME280;56843;52.020;5.670;2023-01-19T05:14:59;99918.50;;;7.89;58.11
69624;BME280;56843;52.020;5.670;2023-01-19T05:16:31;99910.53;;;7.89;58.13
69624;BME280;56843;52.020;5.670;2023-01-19T05:18:01;99916.19;;;7.88;58.13
69624;BME280;56843;52.020;5.670;2023-01-19T05:19:32;99919.16;;;7.86;58.09
69624;BME280;56843;52.020;5.670;2023-01-19T05:21:03;99921.34;;;7.84;58.08
69624;BME280;56843;52.020;5.670;2023-01-19T05:22:33;99925.13;;;7.83;58.11
69624;BME280;56843;52.020;5.670;2023-01-19T05:24:04;99932.31;;;7.83;58.27
69624;BME280;56843;52.020;5.670;2023-01-19T05:25:35;99923.91;;;7.81;58.22
69624;BME280;56843;52.020;5.670;2023-01-19T05:27:05;99928.88;;;7.82;58.30
69624;BME280;56843;52.020;5.670;2023-01-19T05:28:36;99922.78;;;7.82;58.22
69624;BME280;56843;52.020;5.670;2023-01-19T05:30:07;99927.78;;;7.83;58.27
69624;BME280;56843;52.020;5.670;2023-01-19T05:31:38;99933.41;;;7.82;58.46
69624;BME280;56843;52.020;5.670;2023-01-19T05:33:09;99926.22;;;7.82;58.41
69624;BME280;56843;52.020;5.670;2023-01-19T05:34:39;99934.19;;;7.82;58.25
69624;BME280;56843;52.020;5.670;2023-01-19T05:36:10;99936.53;;;7.84;58.52
69624;BME280;56843;52.020;5.670;2023-01-19T05:37:40;99931.53;;;7.82;58.57
69624;BME280;56843;52.020;5.670;2023-01-19T05:39:11;99935.44;;;7.85;58.63
69624;BME280;56843;52.020;5.670;2023-01-19T05:40:42;99938.09;;;7.85;58.50
69624;BME280;56843;52.020;5.670;2023-01-19T05:42:12;99933.56;;;7.85;58.63
69624;BME280;56843;52.020;5.670;2023-01-19T05:43:43;99937.00;;;7.86;58.43
69624;BME280;56843;52.020;5.670;2023-01-19T05:45:13;99943.53;;;7.88;58.60
69624;BME280;56843;52.020;5.670;2023-01-19T05:46:44;99936.34;;;7.89;58.32
69624;BME280;56843;52.020;5.670;2023-01-19T05:48:14;99940.88;;;7.88;58.49
69624;BME280;56843;52.020;5.670;2023-01-19T05:49:45;99942.78;;;7.88;58.58
69624;BME280;56843;52.020;5.670;2023-01-19T05:51:15;99941.66;;;7.89;58.54
69624;BME280;56843;52.020;5.670;2023-01-19T05:52:46;99943.53;;;7.88;58.52
69624;BME280;56843;52.020;5.670;2023-01-19T05:54:16;99946.19;;;7.88;58.55
69624;BME280;56843;52.020;5.670;2023-01-19T05:55:47;99950.75;;;7.88;58.54
69624;BME280;56843;52.020;5.670;2023-01-19T05:57:17;99949.97;;;7.87;58.70
69624;BME280;56843;52.020;5.670;2023-01-19T05:58:48;99953.72;;;7.86;58.62
69624;BME280;56843;52.020;5.670;2023-01-19T06:00:19;99954.50;;;7.87;58.70
69624;BME280;56843;52.020;5.670;2023-01-19T06:01:52;99957.94;;;7.87;58.56
69624;BME280;56843;52.020;5.670;2023-01-19T06:03:23;99956.38;;;7.86;58.69
69624;BME280;56843;52.020;5.670;2023-01-19T06:04:53;99956.69;;;7.85;58.69
69624;BME280;56843;52.020;5.670;2023-01-19T06:06:24;99952.97;;;7.86;58.74
69624;BME280;56843;52.020;5.670;2023-01-19T06:07:55;99960.44;;;7.84;58.70
69624;BME280;56843;52.020;5.670;2023-01-19T06:09:26;99968.41;;;7.84;58.77
69624;BME280;56843;52.020;5.670;2023-01-19T06:10:56;99977.97;;;7.85;58.93
69624;BME280;56843;52.020;5.670;2023-01-19T06:12:27;99984.06;;;7.85;58.90
69624;BME280;56843;52.020;5.670;2023-01-19T06:13:57;99984.84;;;7.86;58.96
69624;BME280;56843;52.020;5.670;2023-01-19T06:15:28;99974.66;;;7.88;59.17
69624;BME280;56843;52.020;5.670;2023-01-19T06:16:58;99958.38;;;7.89;59.42
69624;BME280;56843;52.020;5.670;2023-01-19T06:18:29;99961.63;;;7.95;59.75
69624;BME280;56843;52.020;5.670;2023-01-19T06:19:59;99976.16;;;7.97;59.88
69624;BME280;56843;52.020;5.670;2023-01-19T06:21:30;99974.09;;;8.03;60.16
69624;BME280;56843;52.020;5.670;2023-01-19T06:23:00;99973.09;;;8.07;60.35
69624;BME280;56843;52.020;5.670;2023-01-19T06:24:31;99982.44;;;8.13;60.33
69624;BME280;56843;52.020;5.670;2023-01-19T06:26:02;99988.31;;;8.19;60.39
69624;BME280;56843;52.020;5.670;2023-01-19T06:27:33;99990.00;;;8.24;60.62
69624;BME280;56843;52.020;5.670;2023-01-19T06:29:03;99985.63;;;8.28;60.88
69624;BME280;56843;52.020;5.670;2023-01-19T06:30:34;99993.81;;;8.35;60.80
69624;BME280;56843;52.020;5.670;2023-01-19T06:32:05;99987.84;;;8.38;60.88
69624;BME280;56843;52.020;5.670;2023-01-19T06:33:35;99996.44;;;8.43;60.82
69624;BME280;56843;52.020;5.670;2023-01-19T06:35:06;99997.78;;;8.49;61.10
69624;BME280;56843;52.020;5.670;2023-01-19T06:36:37;99998.66;;;8.53;61.06
69624;BME280;56843;52.020;5.670;2023-01-19T06:38:08;99995.03;;;8.58;61.21
69624;BME280;56843;52.020;5.670;2023-01-19T06:39:38;100004.25;;;8.60;61.27
69624;BME280;56843;52.020;5.670;2023-01-19T06:41:10;100013.16;;;8.64;61.40
69624;BME280;56843;52.020;5.670;2023-01-19T06:42:40;100012.50;;;8.67;61.34
69624;BME280;56843;52.020;5.670;2023-01-19T06:44:11;100017.94;;;8.71;61.51
69624;BME280;56843;52.020;5.670;2023-01-19T06:45:41;100024.50;;;8.73;61.36
69624;BME280;56843;52.020;5.670;2023-01-19T06:47:13;100023.84;;;8.76;61.54
69624;BME280;56843;52.020;5.670;2023-01-19T06:48:44;100033.03;;;8.79;61.46
69624;BME280;56843;52.020;5.670;2023-01-19T06:50:14;100035.06;;;8.82;61.47
69624;BME280;56843;52.020;5.670;2023-01-19T06:51:45;100037.38;;;8.83;61.57
69624;BME280;56843;52.020;5.670;2023-01-19T06:53:16;100040.97;;;8.88;61.64
69624;BME280;56843;52.020;5.670;2023-01-19T06:54:46;100045.16;;;8.88;61.65
69624;BME280;56843;52.020;5.670;2023-01-19T06:56:17;100048.28;;;8.91;61.73
69624;BME280;56843;52.020;5.670;2023-01-19T06:57:47;100052.50;;;8.92;61.76
69624;BME280;56843;52.020;5.670;2023-01-19T06:59:18;100055.28;;;8.95;61.68
69624;BME280;56843;52.020;5.670;2023-01-19T07:00:49;100068.25;;;8.97;61.86
69624;BME280;56843;52.020;5.670;2023-01-19T07:02:20;100071.06;;;9.00;61.47
69624;BME280;56843;52.020;5.670;2023-01-19T07:03:52;100074.16;;;9.02;61.79
69624;BME280;56843;52.020;5.670;2023-01-19T07:05:23;100076.50;;;9.04;61.59
69624;BME280;56843;52.020;5.670;2023-01-19T07:06:54;100087.59;;;9.06;61.36
69624;BME280;56843;52.020;5.670;2023-01-19T07:08:25;100081.16;;;9.07;61.77
69624;BME280;56843;52.020;5.670;2023-01-19T07:09:55;100082.41;;;9.09;61.83
69624;BME280;56843;52.020;5.670;2023-01-19T07:11:26;100083.94;;;9.10;61.65
69624;BME280;56843;52.020;5.670;2023-01-19T07:12:56;100083.63;;;9.12;61.72
69624;BME280;56843;52.020;5.670;2023-01-19T07:14:27;100080.97;;;9.12;61.76
69624;BME280;56843;52.020;5.670;2023-01-19T07:16:12;100092.06;;;9.14;61.86
69624;BME280;56843;52.020;5.670;2023-01-19T07:17:43;100085.97;;;9.13;61.73
69624;BME280;56843;52.020;5.670;2023-01-19T07:19:13;100089.41;;;9.14;61.85
69624;BME280;56843;52.020;5.670;2023-01-19T07:20:45;100083.75;;;9.15;61.78
69624;BME280;56843;52.020;5.670;2023-01-19T07:22:18;100097.06;;;9.15;61.73
69624;BME280;56843;52.020;5.670;2023-01-19T07:23:50;100094.06;;;9.17;61.72
69624;BME280;56843;52.020;5.670;2023-01-19T07:25:21;100102.50;;;9.19;61.76
69624;BME280;56843;52.020;5.670;2023-01-19T07:26:51;100102.97;;;9.21;61.84
69624;BME280;56843;52.020;5.670;2023-01-19T07:28:22;100098.41;;;9.21;61.65
69624;BME280;56843;52.020;5.670;2023-01-19T07:29:53;100106.09;;;9.23;61.75
69624;BME280;56843;52.020;5.670;2023-01-19T07:31:23;100104.16;;;9.23;61.82
69624;BME280;56843;52.020;5.670;2023-01-19T07:32:57;100106.53;;;9.25;61.80
69624;BME280;56843;52.020;5.670;2023-01-19T07:34:28;100114.53;;;9.25;61.90
69624;BME280;56843;52.020;5.670;2023-01-19T07:35:58;100108.84;;;9.26;61.78
69624;BME280;56843;52.020;5.670;2023-01-19T07:37:29;100119.16;;;9.28;61.35
69624;BME280;56843;52.020;5.670;2023-01-19T07:38:59;100121.84;;;9.28;61.77
69624;BME280;56843;52.020;5.670;2023-01-19T07:40:30;100118.84;;;9.29;61.84
69624;BME280;56843;52.020;5.670;2023-01-19T07:42:01;100131.06;;;9.30;62.06
69624;BME280;56843;52.020;5.670;2023-01-19T07:43:34;100134.84;;;9.29;62.01
69624;BME280;56843;52.020;5.670;2023-01-19T07:45:06;100129.97;;;9.31;61.93
69624;BME280;56843;52.020;5.670;2023-01-19T07:46:36;100124.63;;;9.31;61.68
69624;BME280;56843;52.020;5.670;2023-01-19T07:48:07;100133.06;;;9.33;61.94
69624;BME280;56843;52.020;5.670;2023-01-19T07:49:38;100134.94;;;9.33;61.85
69624;BME280;56843;52.020;5.670;2023-01-19T07:51:09;100134.63;;;9.34;62.00
69624;BME280;56843;52.020;5.670;2023-01-19T07:52:41;100138.84;;;9.35;61.89
69624;BME280;56843;52.020;5.670;2023-01-19T07:54:12;100142.31;;;9.36;61.75
69624;BME280;56843;52.020;5.670;2023-01-19T07:55:42;100136.63;;;9.37;61.89
69624;BME280;56843;52.020;5.670;2023-01-19T07:57:13;100144.63;;;9.37;61.95
69624;BME280;56843;52.020;5.670;2023-01-19T07:58:43;100144.63;;;9.37;61.84
69624;BME280;56843;52.020;5.670;2023-01-19T08:00:14;100141.63;;;9.39;61.84
69624;BME280;56843;52.020;5.670;2023-01-19T08:01:45;100154.63;;;9.40;61.92
69624;BME280;56843;52.020;5.670;2023-01-19T08:03:15;100151.97;;;9.40;61.76
69624;BME280;56843;52.020;5.670;2023-01-19T08:04:47;100154.31;;;9.42;61.79
69624;BME280;56843;52.020;5.670;2023-01-19T08:06:20;100152.41;;;9.42;61.59
69624;BME280;56843;52.020;5.670;2023-01-19T08:07:51;100157.75;;;9.42;61.82
69624;BME280;56843;52.020;5.670;2023-01-19T08:09:22;100156.63;;;9.43;61.70
69624;BME280;56843;52.020;5.670;2023-01-19T08:10:53;100165.41;;;9.44;61.75
69624;BME280;56843;52.020;5.670;2023-01-19T08:12:24;100169.94;;;9.43;61.78
69624;BME280;56843;52.020;5.670;2023-01-19T08:13:54;100176.06;;;9.44;61.76
69624;BME280;56843;52.020;5.670;2023-01-19T08:15:25;100164.63;;;9.43;61.49
69624;BME280;56843;52.020;5.670;2023-01-19T08:17:02;100174.63;;;9.46;61.72
69624;BME280;56843;52.020;5.670;2023-01-19T08:18:32;100177.63;;;9.45;61.73
69624;BME280;56843;52.020;5.670;2023-01-19T08:20:03;100175.72;;;9.45;61.41
69624;BME280;56843;52.020;5.670;2023-01-19T08:21:34;100183.72;;;9.45;61.73
69624;BME280;56843;52.020;5.670;2023-01-19T08:23:05;100177.63;;;9.45;61.20
69624;BME280;56843;52.020;5.670;2023-01-19T08:24:36;100183.72;;;9.45;61.38
69624;BME280;56843;52.020;5.670;2023-01-19T08:26:21;100186.84;;;9.47;61.30
69624;BME280;56843;52.020;5.670;2023-01-19T08:27:56;100185.94;;;9.43;61.46
69624;BME280;56843;52.020;5.670;2023-01-19T08:29:27;100187.50;;;9.44;61.57
69624;BME280;56843;52.020;5.670;2023-01-19T08:31:00;100194.38;;;9.45;61.61
69624;BME280;56843;52.020;5.670;2023-01-19T08:32:30;100189.06;;;9.45;61.48